sensor_id;sensor_type;location;lat;lon;timestamp;P1;durP1;ratioP1;P2;durP2;ratioP2
78871;SDS011;68247;43.514;1.502;2023-06-01T00:00:29;18.75;;;11.05;;
78871;SDS011;68247;43.514;1.502;2023-06-01T00:02:55;17.73;;;10.57;;
78871;SDS011;68247;43.514;1.502;2023-06-01T00:05:20;16.80;;;10.13;;
78871;SDS011;68247;43.514;1.502;2023-06-01T00:07:45;19.10;;;10.68;;
78871;SDS011;68247;43.514;1.502;2023-06-01T00:10:12;19.17;;;11.40;;
78871;SDS011;68247;43.514;1.502;2023-06-01T00:12:37;16.10;;;9.33;;
78871;SDS011;68247;43.514;1.502;2023-06-01T00:15:03;16.83;;;10.27;;
78871;SDS011;68247;43.514;1.502;2023-06-01T00:17:28;18.38;;;10.93;;
78871;SDS011;68247;43.514;1.502;2023-06-01T00:19:55;23.33;;;11.10;;
78871;SDS011;68247;43.514;1.502;2023-06-01T00:22:21;16.83;;;10.55;;
78871;SDS011;68247;43.514;1.502;2023-06-01T00:24:49;18.77;;;10.77;;
78871;SDS011;68247;43.514;1.502;2023-06-01T00:27:14;18.67;;;10.50;;
78871;SDS011;68247;43.514;1.502;2023-06-01T00:29:40;16.55;;;10.75;;
78871;SDS011;68247;43.514;1.502;2023-06-01T00:32:05;19.27;;;10.17;;
78871;SDS011;68247;43.514;1.502;2023-06-01T00:34:31;18.58;;;9.85;;
78871;SDS011;68247;43.514;1.502;2023-06-01T00:36:57;19.27;;;10.17;;
78871;SDS011;68247;43.514;1.502;2023-06-01T00:39:22;18.80;;;9.77;;
78871;SDS011;68247;43.514;1.502;2023-06-01T00:41:47;18.15;;;10.13;;
78871;SDS011;68247;43.514;1.502;2023-06-01T00:44:13;15.17;;;9.83;;
78871;SDS011;68247;43.514;1.502;2023-06-01T00:46:39;18.67;;;10.47;;
78871;SDS011;68247;43.514;1.502;2023-06-01T00:49:04;20.35;;;10.50;;
78871;SDS011;68247;43.514;1.502;2023-06-01T00:51:30;17.20;;;9.57;;
78871;SDS011;68247;43.514;1.502;2023-06-01T00:53:57;17.42;;;9.93;;
78871;SDS011;68247;43.514;1.502;2023-06-01T00:56:23;22.80;;;14.00;;
78871;SDS011;68247;43.514;1.502;2023-06-01T00:58:48;19.73;;;11.30;;
78871;SDS011;68247;43.514;1.502;2023-06-01T01:01:14;18.70;;;10.18;;
78871;SDS011;68247;43.514;1.502;2023-06-01T01:03:48;19.17;;;10.27;;
78871;SDS011;68247;43.514;1.502;2023-06-01T01:06:36;18.83;;;10.55;;
78871;SDS011;68247;43.514;1.502;2023-06-01T01:12:09;16.80;;;10.43;;
78871;SDS011;68247;43.514;1.502;2023-06-01T01:15:07;21.33;;;10.18;;
78871;SDS011;68247;43.514;1.502;2023-06-01T01:17:37;23.08;;;11.90;;
78871;SDS011;68247;43.514;1.502;2023-06-01T01:20:24;18.55;;;10.38;;
78871;SDS011;68247;43.514;1.502;2023-06-01T01:23:20;23.98;;;11.70;;
78871;SDS011;68247;43.514;1.502;2023-06-01T01:26:09;22.27;;;11.37;;
78871;SDS011;68247;43.514;1.502;2023-06-01T01:28:51;20.17;;;12.05;;
78871;SDS011;68247;43.514;1.502;2023-06-01T01:31:22;24.00;;;13.55;;
78871;SDS011;68247;43.514;1.502;2023-06-01T01:33:48;22.30;;;12.00;;
78871;SDS011;68247;43.514;1.502;2023-06-01T01:36:16;23.98;;;12.57;;
78871;SDS011;68247;43.514;1.502;2023-06-01T01:38:42;24.43;;;13.17;;
78871;SDS011;68247;43.514;1.502;2023-06-01T01:41:07;24.30;;;12.93;;
78871;SDS011;68247;43.514;1.502;2023-06-01T01:43:33;23.90;;;12.83;;
78871;SDS011;68247;43.514;1.502;2023-06-01T01:48:28;23.02;;;12.50;;
78871;SDS011;68247;43.514;1.502;2023-06-01T01:51:06;24.73;;;12.45;;
78871;SDS011;68247;43.514;1.502;2023-06-01T01:53:35;23.05;;;12.10;;
78871;SDS011;68247;43.514;1.502;2023-06-01T01:56:03;19.67;;;11.40;;
78871;SDS011;68247;43.514;1.502;2023-06-01T01:58:29;18.97;;;11.20;;
78871;SDS011;68247;43.514;1.502;2023-06-01T02:00:54;20.38;;;11.18;;
78871;SDS011;68247;43.514;1.502;2023-06-01T02:03:21;26.90;;;12.23;;
78871;SDS011;68247;43.514;1.502;2023-06-01T02:05:46;23.53;;;11.17;;
78871;SDS011;68247;43.514;1.502;2023-06-01T02:08:11;22.37;;;10.00;;
78871;SDS011;68247;43.514;1.502;2023-06-01T02:10:37;18.50;;;10.00;;
78871;SDS011;68247;43.514;1.502;2023-06-01T02:13:03;18.02;;;9.60;;
78871;SDS011;68247;43.514;1.502;2023-06-01T02:15:28;18.70;;;10.47;;
78871;SDS011;68247;43.514;1.502;2023-06-01T02:17:54;20.50;;;10.07;;
78871;SDS011;68247;43.514;1.502;2023-06-01T02:20:19;20.50;;;10.17;;
78871;SDS011;68247;43.514;1.502;2023-06-01T02:22:45;18.17;;;10.17;;
78871;SDS011;68247;43.514;1.502;2023-06-01T02:25:10;18.85;;;10.07;;
78871;SDS011;68247;43.514;1.502;2023-06-01T02:27:36;19.33;;;9.67;;
78871;SDS011;68247;43.514;1.502;2023-06-01T02:30:01;17.40;;;9.47;;
78871;SDS011;68247;43.514;1.502;2023-06-01T02:32:27;17.70;;;10.17;;
78871;SDS011;68247;43.514;1.502;2023-06-01T02:34:55;16.00;;;9.27;;
78871;SDS011;68247;43.514;1.502;2023-06-01T02:37:21;18.80;;;9.48;;
78871;SDS011;68247;43.514;1.502;2023-06-01T02:39:46;14.90;;;8.60;;
78871;SDS011;68247;43.514;1.502;2023-06-01T02:42:12;15.07;;;9.38;;
78871;SDS011;68247;43.514;1.502;2023-06-01T02:44:38;18.80;;;9.47;;
78871;SDS011;68247;43.514;1.502;2023-06-01T02:47:03;18.03;;;8.73;;
78871;SDS011;68247;43.514;1.502;2023-06-01T02:49:29;13.82;;;8.68;;
78871;SDS011;68247;43.514;1.502;2023-06-01T02:51:55;14.67;;;9.07;;
78871;SDS011;68247;43.514;1.502;2023-06-01T02:54:20;15.43;;;8.25;;
78871;SDS011;68247;43.514;1.502;2023-06-01T02:56:46;17.27;;;8.70;;
78871;SDS011;68247;43.514;1.502;2023-06-01T02:59:11;14.40;;;7.80;;
78871;SDS011;68247;43.514;1.502;2023-06-01T03:01:37;14.20;;;8.67;;
78871;SDS011;68247;43.514;1.502;2023-06-01T03:04:02;12.95;;;8.13;;
78871;SDS011;68247;43.514;1.502;2023-06-01T03:06:32;14.23;;;7.23;;
78871;SDS011;68247;43.514;1.502;2023-06-01T03:09:01;12.98;;;7.78;;
78871;SDS011;68247;43.514;1.502;2023-06-01T03:11:26;13.05;;;7.82;;
78871;SDS011;68247;43.514;1.502;2023-06-01T03:13:52;13.17;;;7.47;;
78871;SDS011;68247;43.514;1.502;2023-06-01T03:16:17;14.10;;;7.87;;
78871;SDS011;68247;43.514;1.502;2023-06-01T03:18:43;11.63;;;7.53;;
78871;SDS011;68247;43.514;1.502;2023-06-01T03:21:08;11.88;;;7.72;;
78871;SDS011;68247;43.514;1.502;2023-06-01T03:23:33;12.33;;;7.27;;
78871;SDS011;68247;43.514;1.502;2023-06-01T03:25:59;12.47;;;7.23;;
78871;SDS011;68247;43.514;1.502;2023-06-01T03:28:25;13.15;;;7.72;;
78871;SDS011;68247;43.514;1.502;2023-06-01T03:30:50;13.53;;;7.47;;
78871;SDS011;68247;43.514;1.502;2023-06-01T03:33:16;12.40;;;7.80;;
78871;SDS011;68247;43.514;1.502;2023-06-01T03:35:42;14.15;;;7.47;;
78871;SDS011;68247;43.514;1.502;2023-06-01T03:38:09;11.40;;;7.78;;
78871;SDS011;68247;43.514;1.502;2023-06-01T03:40:34;12.40;;;6.83;;
78871;SDS011;68247;43.514;1.502;2023-06-01T03:43:00;9.60;;;6.70;;
78871;SDS011;68247;43.514;1.502;2023-06-01T03:45:25;13.10;;;7.45;;
78871;SDS011;68247;43.514;1.502;2023-06-01T03:47:51;13.07;;;7.83;;
78871;SDS011;68247;43.514;1.502;2023-06-01T03:50:16;11.90;;;7.82;;
78871;SDS011;68247;43.514;1.502;2023-06-01T03:52:42;13.10;;;7.43;;
78871;SDS011;68247;43.514;1.502;2023-06-01T03:55:07;14.50;;;7.77;;
78871;SDS011;68247;43.514;1.502;2023-06-01T03:57:35;11.95;;;7.63;;
78871;SDS011;68247;43.514;1.502;2023-06-01T04:00:06;12.35;;;7.45;;
78871;SDS011;68247;43.514;1.502;2023-06-01T04:02:45;14.57;;;7.80;;
78871;SDS011;68247;43.514;1.502;2023-06-01T04:05:13;13.35;;;8.02;;
78871;SDS011;68247;43.514;1.502;2023-06-01T04:07:42;16.23;;;8.70;;
78871;SDS011;68247;43.514;1.502;2023-06-01T04:10:09;13.38;;;7.65;;
78871;SDS011;68247;43.514;1.502;2023-06-01T04:12:36;16.75;;;8.52;;
78871;SDS011;68247;43.514;1.502;2023-06-01T04:15:02;14.20;;;8.13;;
78871;SDS011;68247;43.514;1.502;2023-06-01T04:17:27;15.93;;;8.65;;
78871;SDS011;68247;43.514;1.502;2023-06-01T04:19:53;13.83;;;8.73;;
78871;SDS011;68247;43.514;1.502;2023-06-01T04:22:18;13.80;;;8.60;;
78871;SDS011;68247;43.514;1.502;2023-06-01T04:24:44;14.82;;;8.90;;
78871;SDS011;68247;43.514;1.502;2023-06-01T04:27:09;17.00;;;8.67;;
78871;SDS011;68247;43.514;1.502;2023-06-01T04:29:35;15.80;;;9.13;;
78871;SDS011;68247;43.514;1.502;2023-06-01T04:32:04;15.73;;;9.30;;
78871;SDS011;68247;43.514;1.502;2023-06-01T04:34:30;19.48;;;10.07;;
78871;SDS011;68247;43.514;1.502;2023-06-01T04:36:55;19.97;;;9.40;;
78871;SDS011;68247;43.514;1.502;2023-06-01T04:39:21;16.23;;;9.47;;
78871;SDS011;68247;43.514;1.502;2023-06-01T04:41:46;16.23;;;8.97;;
78871;SDS011;68247;43.514;1.502;2023-06-01T04:44:13;16.77;;;9.57;;
78871;SDS011;68247;43.514;1.502;2023-06-01T04:46:41;18.20;;;9.88;;
78871;SDS011;68247;43.514;1.502;2023-06-01T04:49:06;16.77;;;9.80;;
78871;SDS011;68247;43.514;1.502;2023-06-01T04:51:31;16.05;;;9.52;;
78871;SDS011;68247;43.514;1.502;2023-06-01T04:53:58;18.13;;;9.40;;
78871;SDS011;68247;43.514;1.502;2023-06-01T04:56:24;20.58;;;9.90;;
78871;SDS011;68247;43.514;1.502;2023-06-01T04:58:52;22.35;;;10.80;;
78871;SDS011;68247;43.514;1.502;2023-06-01T05:01:18;15.13;;;9.43;;
78871;SDS011;68247;43.514;1.502;2023-06-01T05:03:44;20.65;;;9.85;;
78871;SDS011;68247;43.514;1.502;2023-06-01T05:06:13;16.33;;;10.63;;
78871;SDS011;68247;43.514;1.502;2023-06-01T05:08:39;19.45;;;9.68;;
78871;SDS011;68247;43.514;1.502;2023-06-01T05:11:05;20.10;;;11.27;;
78871;SDS011;68247;43.514;1.502;2023-06-01T05:13:31;19.48;;;10.32;;
78871;SDS011;68247;43.514;1.502;2023-06-01T05:15:59;18.25;;;10.82;;
78871;SDS011;68247;43.514;1.502;2023-06-01T05:18:24;21.83;;;10.30;;
78871;SDS011;68247;43.514;1.502;2023-06-01T05:20:50;19.20;;;10.40;;
78871;SDS011;68247;43.514;1.502;2023-06-01T05:23:16;21.50;;;10.73;;
78871;SDS011;68247;43.514;1.502;2023-06-01T05:25:42;18.00;;;10.10;;
78871;SDS011;68247;43.514;1.502;2023-06-01T05:28:07;20.37;;;10.73;;
78871;SDS011;68247;43.514;1.502;2023-06-01T05:30:32;22.45;;;10.82;;
78871;SDS011;68247;43.514;1.502;2023-06-01T05:32:59;18.00;;;10.20;;
78871;SDS011;68247;43.514;1.502;2023-06-01T05:35:24;18.47;;;10.10;;
78871;SDS011;68247;43.514;1.502;2023-06-01T05:37:50;19.57;;;9.57;;
78871;SDS011;68247;43.514;1.502;2023-06-01T05:40:15;21.58;;;11.00;;
78871;SDS011;68247;43.514;1.502;2023-06-01T05:42:41;17.80;;;10.37;;
78871;SDS011;68247;43.514;1.502;2023-06-01T05:45:06;20.27;;;10.03;;
78871;SDS011;68247;43.514;1.502;2023-06-01T05:47:32;21.65;;;10.43;;
78871;SDS011;68247;43.514;1.502;2023-06-01T05:49:58;22.33;;;10.73;;
78871;SDS011;68247;43.514;1.502;2023-06-01T05:52:23;19.13;;;10.07;;
78871;SDS011;68247;43.514;1.502;2023-06-01T05:54:48;20.20;;;10.17;;
78871;SDS011;68247;43.514;1.502;2023-06-01T05:57:15;16.40;;;9.68;;
78871;SDS011;68247;43.514;1.502;2023-06-01T05:59:41;21.33;;;10.77;;
78871;SDS011;68247;43.514;1.502;2023-06-01T06:02:07;16.13;;;9.50;;
78871;SDS011;68247;43.514;1.502;2023-06-01T06:04:32;16.23;;;9.70;;
78871;SDS011;68247;43.514;1.502;2023-06-01T06:06:58;16.40;;;9.70;;
78871;SDS011;68247;43.514;1.502;2023-06-01T06:09:23;18.20;;;9.30;;
78871;SDS011;68247;43.514;1.502;2023-06-01T06:11:49;19.05;;;10.00;;
78871;SDS011;68247;43.514;1.502;2023-06-01T06:14:14;15.23;;;9.20;;
78871;SDS011;68247;43.514;1.502;2023-06-01T06:16:41;16.33;;;9.43;;
78871;SDS011;68247;43.514;1.502;2023-06-01T06:19:07;16.70;;;8.90;;
78871;SDS011;68247;43.514;1.502;2023-06-01T06:21:32;17.47;;;9.33;;
78871;SDS011;68247;43.514;1.502;2023-06-01T06:23:58;14.23;;;8.67;;
78871;SDS011;68247;43.514;1.502;2023-06-01T06:26:24;13.52;;;8.50;;
78871;SDS011;68247;43.514;1.502;2023-06-01T06:28:51;16.92;;;9.00;;
78871;SDS011;68247;43.514;1.502;2023-06-01T06:31:17;16.87;;;8.67;;
78871;SDS011;68247;43.514;1.502;2023-06-01T06:33:42;16.03;;;8.90;;
78871;SDS011;68247;43.514;1.502;2023-06-01T06:36:08;16.10;;;9.18;;
78871;SDS011;68247;43.514;1.502;2023-06-01T06:38:33;18.13;;;8.87;;
78871;SDS011;68247;43.514;1.502;2023-06-01T06:40:59;16.23;;;8.23;;
78871;SDS011;68247;43.514;1.502;2023-06-01T06:43:24;15.02;;;8.65;;
78871;SDS011;68247;43.514;1.502;2023-06-01T06:45:50;16.40;;;8.20;;
78871;SDS011;68247;43.514;1.502;2023-06-01T06:48:15;13.77;;;8.27;;
78871;SDS011;68247;43.514;1.502;2023-06-01T06:50:41;17.83;;;7.93;;
78871;SDS011;68247;43.514;1.502;2023-06-01T06:53:09;17.08;;;8.25;;
78871;SDS011;68247;43.514;1.502;2023-06-01T06:55:35;16.15;;;7.70;;
78871;SDS011;68247;43.514;1.502;2023-06-01T06:58:00;16.00;;;8.00;;
78871;SDS011;68247;43.514;1.502;2023-06-01T07:00:26;15.80;;;8.20;;
78871;SDS011;68247;43.514;1.502;2023-06-01T07:02:52;11.80;;;7.03;;
78871;SDS011;68247;43.514;1.502;2023-06-01T07:05:17;13.32;;;7.40;;
78871;SDS011;68247;43.514;1.502;2023-06-01T07:07:43;17.23;;;8.33;;
78871;SDS011;68247;43.514;1.502;2023-06-01T07:10:09;16.60;;;7.80;;
78871;SDS011;68247;43.514;1.502;2023-06-01T07:12:34;14.37;;;7.97;;
78871;SDS011;68247;43.514;1.502;2023-06-01T07:15:00;12.33;;;7.90;;
78871;SDS011;68247;43.514;1.502;2023-06-01T07:17:26;11.85;;;7.40;;
78871;SDS011;68247;43.514;1.502;2023-06-01T07:19:51;12.67;;;6.83;;
78871;SDS011;68247;43.514;1.502;2023-06-01T07:22:17;12.60;;;6.75;;
78871;SDS011;68247;43.514;1.502;2023-06-01T07:24:42;13.03;;;6.73;;
78871;SDS011;68247;43.514;1.502;2023-06-01T07:27:09;13.00;;;7.20;;
78871;SDS011;68247;43.514;1.502;2023-06-01T07:29:35;11.97;;;7.00;;
78871;SDS011;68247;43.514;1.502;2023-06-01T07:32:01;14.10;;;6.68;;
78871;SDS011;68247;43.514;1.502;2023-06-01T07:34:27;10.53;;;6.80;;
78871;SDS011;68247;43.514;1.502;2023-06-01T07:36:52;12.80;;;6.35;;
78871;SDS011;68247;43.514;1.502;2023-06-01T07:39:18;14.57;;;6.93;;
78871;SDS011;68247;43.514;1.502;2023-06-01T07:41:44;11.85;;;6.70;;
78871;SDS011;68247;43.514;1.502;2023-06-01T07:44:10;11.33;;;6.40;;
78871;SDS011;68247;43.514;1.502;2023-06-01T07:46:35;11.17;;;5.90;;
78871;SDS011;68247;43.514;1.502;2023-06-01T07:49:01;10.77;;;5.80;;
78871;SDS011;68247;43.514;1.502;2023-06-01T07:51:26;11.10;;;5.93;;
78871;SDS011;68247;43.514;1.502;2023-06-01T07:53:53;15.00;;;6.30;;
78871;SDS011;68247;43.514;1.502;2023-06-01T07:56:22;11.82;;;6.40;;
78871;SDS011;68247;43.514;1.502;2023-06-01T07:58:51;12.93;;;6.47;;
78871;SDS011;68247;43.514;1.502;2023-06-01T08:01:17;12.20;;;6.43;;
78871;SDS011;68247;43.514;1.502;2023-06-01T08:03:43;12.67;;;6.37;;
78871;SDS011;68247;43.514;1.502;2023-06-01T08:06:09;10.73;;;6.07;;
78871;SDS011;68247;43.514;1.502;2023-06-01T08:08:34;9.52;;;5.97;;
78871;SDS011;68247;43.514;1.502;2023-06-01T08:11:00;12.13;;;6.87;;
78871;SDS011;68247;43.514;1.502;2023-06-01T08:13:26;11.80;;;6.10;;
78871;SDS011;68247;43.514;1.502;2023-06-01T08:15:51;12.70;;;6.30;;
78871;SDS011;68247;43.514;1.502;2023-06-01T08:18:18;10.52;;;6.07;;
78871;SDS011;68247;43.514;1.502;2023-06-01T08:20:45;10.15;;;6.03;;
78871;SDS011;68247;43.514;1.502;2023-06-01T08:23:10;11.85;;;5.65;;
78871;SDS011;68247;43.514;1.502;2023-06-01T08:25:36;9.20;;;5.83;;
78871;SDS011;68247;43.514;1.502;2023-06-01T08:28:01;10.33;;;5.80;;
78871;SDS011;68247;43.514;1.502;2023-06-01T08:30:27;12.68;;;6.32;;
78871;SDS011;68247;43.514;1.502;2023-06-01T08:32:52;9.67;;;5.90;;
78871;SDS011;68247;43.514;1.502;2023-06-01T08:35:18;9.30;;;5.90;;
78871;SDS011;68247;43.514;1.502;2023-06-01T08:37:44;9.18;;;5.88;;
78871;SDS011;68247;43.514;1.502;2023-06-01T08:40:12;11.15;;;5.65;;
78871;SDS011;68247;43.514;1.502;2023-06-01T08:45:13;10.00;;;5.72;;
78871;SDS011;68247;43.514;1.502;2023-06-01T08:47:40;10.60;;;5.50;;
78871;SDS011;68247;43.514;1.502;2023-06-01T08:50:06;9.15;;;5.88;;
78871;SDS011;68247;43.514;1.502;2023-06-01T08:52:34;10.13;;;6.10;;
78871;SDS011;68247;43.514;1.502;2023-06-01T08:55:01;9.50;;;5.82;;
78871;SDS011;68247;43.514;1.502;2023-06-01T08:57:29;9.70;;;5.65;;
78871;SDS011;68247;43.514;1.502;2023-06-01T08:59:57;9.02;;;5.82;;
78871;SDS011;68247;43.514;1.502;2023-06-01T09:02:24;10.80;;;5.57;;
78871;SDS011;68247;43.514;1.502;2023-06-01T09:04:50;11.87;;;6.43;;
78871;SDS011;68247;43.514;1.502;2023-06-01T09:07:16;10.82;;;5.80;;
78871;SDS011;68247;43.514;1.502;2023-06-01T09:09:42;8.63;;;5.73;;
78871;SDS011;68247;43.514;1.502;2023-06-01T09:14:49;9.88;;;6.00;;
78871;SDS011;68247;43.514;1.502;2023-06-01T09:17:22;9.93;;;5.75;;
78871;SDS011;68247;43.514;1.502;2023-06-01T09:19:50;9.85;;;5.68;;
78871;SDS011;68247;43.514;1.502;2023-06-01T09:22:19;6.80;;;4.60;;
78871;SDS011;68247;43.514;1.502;2023-06-01T09:24:58;8.38;;;5.45;;
78871;SDS011;68247;43.514;1.502;2023-06-01T09:27:24;10.25;;;5.55;;
78871;SDS011;68247;43.514;1.502;2023-06-01T09:29:54;8.90;;;4.80;;
78871;SDS011;68247;43.514;1.502;2023-06-01T09:32:24;10.95;;;4.80;;
78871;SDS011;68247;43.514;1.502;2023-06-01T09:34:50;6.97;;;4.53;;
78871;SDS011;68247;43.514;1.502;2023-06-01T09:37:15;7.87;;;4.57;;
78871;SDS011;68247;43.514;1.502;2023-06-01T09:39:42;8.15;;;4.70;;
78871;SDS011;68247;43.514;1.502;2023-06-01T09:42:08;8.80;;;4.55;;
78871;SDS011;68247;43.514;1.502;2023-06-01T09:44:34;8.47;;;5.17;;
78871;SDS011;68247;43.514;1.502;2023-06-01T09:47:05;8.98;;;4.57;;
78871;SDS011;68247;43.514;1.502;2023-06-01T09:49:36;9.60;;;5.07;;
78871;SDS011;68247;43.514;1.502;2023-06-01T09:54:29;9.07;;;4.67;;
78871;SDS011;68247;43.514;1.502;2023-06-01T09:56:59;6.90;;;4.25;;
78871;SDS011;68247;43.514;1.502;2023-06-01T09:59:26;9.25;;;4.80;;
78871;SDS011;68247;43.514;1.502;2023-06-01T10:01:54;8.93;;;4.87;;
78871;SDS011;68247;43.514;1.502;2023-06-01T10:04:22;8.20;;;4.80;;
78871;SDS011;68247;43.514;1.502;2023-06-01T10:06:53;9.32;;;4.95;;
78871;SDS011;68247;43.514;1.502;2023-06-01T10:09:22;8.18;;;4.85;;
78871;SDS011;68247;43.514;1.502;2023-06-01T10:11:51;7.70;;;5.30;;
78871;SDS011;68247;43.514;1.502;2023-06-01T10:14:22;7.90;;;5.00;;
78871;SDS011;68247;43.514;1.502;2023-06-01T10:16:52;7.75;;;4.88;;
78871;SDS011;68247;43.514;1.502;2023-06-01T10:19:18;9.07;;;4.72;;
78871;SDS011;68247;43.514;1.502;2023-06-01T10:21:45;7.47;;;5.30;;
78871;SDS011;68247;43.514;1.502;2023-06-01T10:24:12;8.43;;;5.13;;
78871;SDS011;68247;43.514;1.502;2023-06-01T10:26:42;9.40;;;5.03;;
78871;SDS011;68247;43.514;1.502;2023-06-01T10:29:13;7.20;;;4.95;;
78871;SDS011;68247;43.514;1.502;2023-06-01T10:31:40;6.70;;;4.88;;
78871;SDS011;68247;43.514;1.502;2023-06-01T10:34:07;7.22;;;5.20;;
78871;SDS011;68247;43.514;1.502;2023-06-01T10:37:34;8.63;;;4.93;;
78871;SDS011;68247;43.514;1.502;2023-06-01T10:39:31;8.70;;;5.00;;
78871;SDS011;68247;43.514;1.502;2023-06-01T10:41:58;7.15;;;5.25;;
78871;SDS011;68247;43.514;1.502;2023-06-01T10:55:19;6.82;;;4.88;;
78871;SDS011;68247;43.514;1.502;2023-06-01T10:57:44;8.25;;;5.45;;
78871;SDS011;68247;43.514;1.502;2023-06-01T11:00:14;7.60;;;4.97;;
78871;SDS011;68247;43.514;1.502;2023-06-01T11:05:40;8.85;;;5.18;;
78871;SDS011;68247;43.514;1.502;2023-06-01T11:13:15;7.47;;;5.07;;
78871;SDS011;68247;43.514;1.502;2023-06-01T11:18:41;8.52;;;5.20;;
78871;SDS011;68247;43.514;1.502;2023-06-01T11:21:12;9.73;;;5.80;;
78871;SDS011;68247;43.514;1.502;2023-06-01T11:23:46;8.40;;;5.03;;
78871;SDS011;68247;43.514;1.502;2023-06-01T11:26:15;9.40;;;5.35;;
78871;SDS011;68247;43.514;1.502;2023-06-01T11:28:42;7.33;;;5.13;;
78871;SDS011;68247;43.514;1.502;2023-06-01T11:31:09;9.90;;;5.55;;
78871;SDS011;68247;43.514;1.502;2023-06-01T11:33:35;8.73;;;5.28;;
78871;SDS011;68247;43.514;1.502;2023-06-01T11:36:03;9.05;;;5.57;;
78871;SDS011;68247;43.514;1.502;2023-06-01T11:38:34;9.02;;;5.60;;
78871;SDS011;68247;43.514;1.502;2023-06-01T11:41:03;8.73;;;5.13;;
78871;SDS011;68247;43.514;1.502;2023-06-01T11:43:32;6.95;;;5.10;;
78871;SDS011;68247;43.514;1.502;2023-06-01T11:46:01;7.88;;;5.38;;
78871;SDS011;68247;43.514;1.502;2023-06-01T11:48:27;7.30;;;5.20;;
78871;SDS011;68247;43.514;1.502;2023-06-01T11:50:53;10.13;;;5.85;;
78871;SDS011;68247;43.514;1.502;2023-06-01T11:53:20;8.57;;;5.75;;
78871;SDS011;68247;43.514;1.502;2023-06-01T11:55:49;8.90;;;6.18;;
78871;SDS011;68247;43.514;1.502;2023-06-01T11:58:25;10.43;;;6.28;;
78871;SDS011;68247;43.514;1.502;2023-06-01T12:00:55;7.53;;;5.70;;
78871;SDS011;68247;43.514;1.502;2023-06-01T12:03:22;8.25;;;6.10;;
78871;SDS011;68247;43.514;1.502;2023-06-01T12:05:52;8.98;;;6.15;;
78871;SDS011;68247;43.514;1.502;2023-06-01T12:08:21;9.57;;;6.53;;
78871;SDS011;68247;43.514;1.502;2023-06-01T12:10:48;8.37;;;5.90;;
78871;SDS011;68247;43.514;1.502;2023-06-01T12:13:15;8.90;;;5.97;;
78871;SDS011;68247;43.514;1.502;2023-06-01T12:15:42;7.78;;;5.43;;
78871;SDS011;68247;43.514;1.502;2023-06-01T12:18:07;7.20;;;5.30;;
78871;SDS011;68247;43.514;1.502;2023-06-01T12:20:34;7.97;;;5.90;;
78871;SDS011;68247;43.514;1.502;2023-06-01T12:23:02;7.70;;;5.72;;
78871;SDS011;68247;43.514;1.502;2023-06-01T12:25:50;8.52;;;5.78;;
78871;SDS011;68247;43.514;1.502;2023-06-01T12:28:23;8.90;;;5.63;;
78871;SDS011;68247;43.514;1.502;2023-06-01T12:31:13;6.77;;;5.20;;
78871;SDS011;68247;43.514;1.502;2023-06-01T12:33:40;7.75;;;5.82;;
78871;SDS011;68247;43.514;1.502;2023-06-01T12:36:08;8.98;;;6.00;;
78871;SDS011;68247;43.514;1.502;2023-06-01T12:38:49;8.53;;;5.60;;
78871;SDS011;68247;43.514;1.502;2023-06-01T12:41:17;9.73;;;5.70;;
78871;SDS011;68247;43.514;1.502;2023-06-01T12:43:49;7.82;;;5.40;;
78871;SDS011;68247;43.514;1.502;2023-06-01T12:48:53;7.47;;;4.93;;
78871;SDS011;68247;43.514;1.502;2023-06-01T12:51:20;7.85;;;5.78;;
78871;SDS011;68247;43.514;1.502;2023-06-01T12:53:47;8.10;;;5.40;;
78871;SDS011;68247;43.514;1.502;2023-06-01T12:56:12;8.30;;;5.30;;
78871;SDS011;68247;43.514;1.502;2023-06-01T12:58:38;8.20;;;5.30;;
78871;SDS011;68247;43.514;1.502;2023-06-01T13:01:04;9.38;;;5.18;;
78871;SDS011;68247;43.514;1.502;2023-06-01T13:03:30;8.23;;;5.80;;
78871;SDS011;68247;43.514;1.502;2023-06-01T13:05:55;8.80;;;5.10;;
78871;SDS011;68247;43.514;1.502;2023-06-01T13:08:21;7.73;;;5.20;;
78871;SDS011;68247;43.514;1.502;2023-06-01T13:10:47;8.70;;;5.85;;
78871;SDS011;68247;43.514;1.502;2023-06-01T13:13:13;8.38;;;6.15;;
78871;SDS011;68247;43.514;1.502;2023-06-01T13:15:39;7.90;;;5.63;;
78871;SDS011;68247;43.514;1.502;2023-06-01T13:18:05;7.28;;;5.03;;
78871;SDS011;68247;43.514;1.502;2023-06-01T13:20:30;7.93;;;4.93;;
78871;SDS011;68247;43.514;1.502;2023-06-01T13:22:56;8.63;;;5.55;;
78871;SDS011;68247;43.514;1.502;2023-06-01T13:25:21;7.87;;;5.03;;
78871;SDS011;68247;43.514;1.502;2023-06-01T13:27:47;7.30;;;5.40;;
78871;SDS011;68247;43.514;1.502;2023-06-01T13:30:12;7.50;;;5.07;;
78871;SDS011;68247;43.514;1.502;2023-06-01T13:32:38;7.95;;;5.78;;
78871;SDS011;68247;43.514;1.502;2023-06-01T13:35:04;8.07;;;5.40;;
78871;SDS011;68247;43.514;1.502;2023-06-01T13:37:29;7.57;;;5.25;;
78871;SDS011;68247;43.514;1.502;2023-06-01T13:39:55;8.03;;;5.20;;
78871;SDS011;68247;43.514;1.502;2023-06-01T13:42:20;8.07;;;5.30;;
78871;SDS011;68247;43.514;1.502;2023-06-01T13:44:46;7.63;;;5.03;;
78871;SDS011;68247;43.514;1.502;2023-06-01T13:47:15;9.30;;;5.40;;
78871;SDS011;68247;43.514;1.502;2023-06-01T13:49:41;8.63;;;5.70;;
78871;SDS011;68247;43.514;1.502;2023-06-01T13:52:09;7.85;;;5.07;;
78871;SDS011;68247;43.514;1.502;2023-06-01T13:54:36;10.18;;;6.57;;
78871;SDS011;68247;43.514;1.502;2023-06-01T13:57:01;7.57;;;5.37;;
78871;SDS011;68247;43.514;1.502;2023-06-01T13:59:28;9.18;;;5.70;;
78871;SDS011;68247;43.514;1.502;2023-06-01T14:01:55;9.48;;;5.97;;
78871;SDS011;68247;43.514;1.502;2023-06-01T14:04:21;7.88;;;5.13;;
78871;SDS011;68247;43.514;1.502;2023-06-01T14:06:46;9.43;;;5.03;;
78871;SDS011;68247;43.514;1.502;2023-06-01T14:09:12;7.35;;;4.55;;
78871;SDS011;68247;43.514;1.502;2023-06-01T14:11:38;9.13;;;5.83;;
78871;SDS011;68247;43.514;1.502;2023-06-01T14:14:03;7.53;;;5.30;;
78871;SDS011;68247;43.514;1.502;2023-06-01T14:16:29;7.03;;;4.60;;
78871;SDS011;68247;43.514;1.502;2023-06-01T14:18:54;7.22;;;4.82;;
78871;SDS011;68247;43.514;1.502;2023-06-01T14:21:20;7.30;;;4.93;;
78871;SDS011;68247;43.514;1.502;2023-06-01T14:23:45;9.17;;;5.70;;
78871;SDS011;68247;43.514;1.502;2023-06-01T14:26:10;8.07;;;4.80;;
78871;SDS011;68247;43.514;1.502;2023-06-01T14:28:36;8.67;;;5.10;;
78871;SDS011;68247;43.514;1.502;2023-06-01T14:31:01;8.75;;;5.15;;
78871;SDS011;68247;43.514;1.502;2023-06-01T14:33:27;7.57;;;4.70;;
78871;SDS011;68247;43.514;1.502;2023-06-01T14:35:52;7.87;;;5.50;;
78871;SDS011;68247;43.514;1.502;2023-06-01T14:38:18;9.60;;;5.40;;
78871;SDS011;68247;43.514;1.502;2023-06-01T14:40:43;8.00;;;4.93;;
78871;SDS011;68247;43.514;1.502;2023-06-01T14:43:08;10.53;;;5.20;;
78871;SDS011;68247;43.514;1.502;2023-06-01T14:45:34;9.10;;;5.43;;
78871;SDS011;68247;43.514;1.502;2023-06-01T14:47:59;10.67;;;5.53;;
78871;SDS011;68247;43.514;1.502;2023-06-01T14:50:25;9.88;;;5.75;;
78871;SDS011;68247;43.514;1.502;2023-06-01T14:52:51;11.70;;;5.73;;
78871;SDS011;68247;43.514;1.502;2023-06-01T14:55:16;9.00;;;5.60;;
78871;SDS011;68247;43.514;1.502;2023-06-01T14:57:43;9.65;;;5.43;;
78871;SDS011;68247;43.514;1.502;2023-06-01T15:00:09;8.57;;;5.50;;
78871;SDS011;68247;43.514;1.502;2023-06-01T15:02:36;9.82;;;5.50;;
78871;SDS011;68247;43.514;1.502;2023-06-01T15:05:01;8.13;;;5.97;;
78871;SDS011;68247;43.514;1.502;2023-06-01T15:07:27;8.20;;;5.50;;
78871;SDS011;68247;43.514;1.502;2023-06-01T15:09:52;8.60;;;5.83;;
78871;SDS011;68247;43.514;1.502;2023-06-01T15:12:18;10.73;;;6.57;;